Glendon, North Carolina
Current Conditions -  °F | °C
As of 9:35 PM on Wednesday 22 Oct 2014 (Local Time) from K5W8 Reporting Station
Clear Clear  
Wind Chill: 11°   Ceiling: Unl
Heat Index: 11°   Visibility: 10mi
Dew Point:   Wind: 6mph
Humidity: 67%   Direction: 320°NW
Pressure: 30.05"   Gusts: NA
Location:  35.4616°N, 79.5721°W
Report Text: K5W8 230135Z AUTO 32005KT 10SM CLR 11/05 A3005 RMK AO2 T01100050
Loading
Personal Weather Stations






























Interactive Weather Map
Tropical Storm Tracking
New forecast layout! Learn more

10-Day Weather Forecast

Advertisements
Track Severe Weather on mobile